Terminal Aerodrome Forecast
Issued by NWS Binghamton, NY

Home | Current Version | Previous Version | Text Only | Print | Product List | Glossary On
Versions: 1 2 3 4 5 6 7 8 9 10 11 12 13 14 15 16 17 18 19 20 21 22 23 24 25 26 27 28 29 30 31 32
000
FTUS41 KBGM 201729
TAFSYR
TAF
KSYR 201729Z 2018/2118 32015G25KT 2SM -SN BLSN BKN015 OVC035
      TEMPO 2018/2021 3/4SM -SN BLSN
     FM210000 31012G22KT 2SM -SHSN BLSN BKN012 OVC025
     FM211400 31018G28KT P6SM -SHSN BKN025=

USA.gov is the U.S. government's official web portal to all federal, state and local government web resources and services.